Time;durP1;ratioP1;P1;durP2;ratioP2;P2;SDS_P1;SDS_P2;PMS_P1;PMS_P2;Temp;Humidity;BMP_temperature;BMP_pressure;BME280_temperature;BME280_humidity;BME280_pressure;Samples;Min_cycle;Max_cycle;Signal;HPM_P1;HPM_P2
2021/12/09 00:02:20;;;;;;;3.30;1.20;;;;;;;;;;5012600;28;20022;-64
2021/12/09 00:04:47;;;;;;;1.63;0.98;;;;;;;;;;5011886;28;20416;-63
2021/12/09 00:07:13;;;;;;;3.08;1.10;;;;;;;;;;5012917;28;20030;-63
2021/12/09 00:09:39;;;;;;;1.15;0.63;;;;;;;;;;5011920;28;20045;-63
2021/12/09 00:12:05;;;;;;;1.55;0.90;;;;;;;;;;5012435;28;20038;-64
2021/12/09 00:14:33;;;;;;;4.20;1.48;;;;;;;;;;5011911;28;20034;-64
2021/12/09 00:17:01;;;;;;;2.75;0.90;;;;;;;;;;5012497;28;20025;-64
2021/12/09 00:19:27;;;;;;;1.75;1.00;;;;;;;;;;5012679;28;20022;-63
2021/12/09 00:21:53;;;;;;;2.05;0.80;;;;;;;;;;5011671;28;20169;-63
2021/12/09 00:24:19;;;;;;;1.30;0.90;;;;;;;;;;5012540;28;20030;-63
2021/12/09 00:26:46;;;;;;;0.70;0.70;;;;;;;;;;5010696;28;20433;-63
2021/12/09 00:29:14;;;;;;;1.08;0.80;;;;;;;;;;5012551;28;20030;-63
2021/12/09 00:31:40;;;;;;;1.33;0.75;;;;;;;;;;5011407;28;20586;-63
2021/12/09 00:34:06;;;;;;;2.17;1.00;;;;;;;;;;5012173;28;20030;-64
2021/12/09 00:36:40;;;;;;;2.72;1.25;;;;;;;;;;5012041;28;20097;-63
2021/12/09 00:39:07;;;;;;;3.13;1.27;;;;;;;;;;5012700;28;20419;-63
2021/12/09 00:41:33;;;;;;;1.50;1.15;;;;;;;;;;5011917;28;20026;-62
2021/12/09 00:43:59;;;;;;;2.60;1.00;;;;;;;;;;5011963;28;20034;-63
2021/12/09 00:46:25;;;;;;;1.75;0.93;;;;;;;;;;5011996;28;20033;-63
2021/12/09 00:48:51;;;;;;;1.75;1.20;;;;;;;;;;5011496;28;20032;-63
2021/12/09 00:51:18;;;;;;;1.85;0.85;;;;;;;;;;5011953;28;20391;-63
2021/12/09 00:53:44;;;;;;;0.80;0.60;;;;;;;;;;5011315;28;20034;-63
2021/12/09 00:56:11;;;;;;;1.23;0.80;;;;;;;;;;5011894;28;20046;-63
2021/12/09 00:58:38;;;;;;;10.60;0.98;;;;;;;;;;5010920;28;20076;-63
2021/12/09 01:01:04;;;;;;;1.58;0.82;;;;;;;;;;5012940;28;20051;-63
2021/12/09 01:03:31;;;;;;;2.75;1.02;;;;;;;;;;5016166;28;20036;-63
2021/12/09 01:05:57;;;;;;;1.40;0.70;;;;;;;;;;4998059;28;20030;-63
2021/12/09 01:08:23;;;;;;;2.30;0.77;;;;;;;;;;4996174;28;20531;-63
2021/12/09 01:10:49;;;;;;;1.42;0.52;;;;;;;;;;4995344;28;20026;-63
2021/12/09 01:13:15;;;;;;;1.33;0.82;;;;;;;;;;4996210;28;20022;-63
2021/12/09 01:15:41;;;;;;;2.20;1.00;;;;;;;;;;4995379;28;20401;-63
2021/12/09 01:18:07;;;;;;;1.55;0.60;;;;;;;;;;4996012;28;20492;-63
2021/12/09 01:20:33;;;;;;;2.20;0.80;;;;;;;;;;4995969;28;20027;-63
2021/12/09 01:23:01;;;;;;;1.20;0.73;;;;;;;;;;4995829;28;20105;-63
2021/12/09 01:25:27;;;;;;;2.92;0.80;;;;;;;;;;4996022;28;20026;-63
2021/12/09 01:27:56;;;;;;;1.10;0.60;;;;;;;;;;5005297;28;20030;-63
2021/12/09 01:30:23;;;;;;;1.85;0.82;;;;;;;;;;5015798;28;20021;-63
2021/12/09 01:32:52;;;;;;;1.60;1.13;;;;;;;;;;5014703;28;20053;-62
2021/12/09 01:35:20;;;;;;;0.98;0.70;;;;;;;;;;5015634;28;20088;-63
2021/12/09 01:37:47;;;;;;;1.80;0.77;;;;;;;;;;5014477;28;20527;-64
2021/12/09 01:40:13;;;;;;;2.45;0.90;;;;;;;;;;5015572;28;20101;-63
2021/12/09 01:42:39;;;;;;;1.80;0.82;;;;;;;;;;5014315;28;20072;-63
2021/12/09 01:45:05;;;;;;;3.08;1.10;;;;;;;;;;5014704;28;20059;-63
2021/12/09 01:47:32;;;;;;;1.45;0.50;;;;;;;;;;5014935;28;20030;-63
2021/12/09 01:49:58;;;;;;;1.65;0.80;;;;;;;;;;5014774;28;20022;-63
2021/12/09 01:52:24;;;;;;;1.60;0.70;;;;;;;;;;5015276;28;20371;-64
2021/12/09 01:54:50;;;;;;;1.85;0.77;;;;;;;;;;5014340;28;20052;-63
2021/12/09 01:57:17;;;;;;;1.17;0.57;;;;;;;;;;5014720;28;20129;-63
2021/12/09 01:59:43;;;;;;;1.40;0.90;;;;;;;;;;5014142;28;20041;-63
2021/12/09 02:02:09;;;;;;;0.90;0.70;;;;;;;;;;5014846;28;20535;-63
2021/12/09 02:04:35;;;;;;;2.10;0.60;;;;;;;;;;5014615;28;20100;-63
2021/12/09 02:07:01;;;;;;;1.35;0.65;;;;;;;;;;5014521;28;20079;-63
2021/12/09 02:09:27;;;;;;;1.50;0.70;;;;;;;;;;5014867;28;20037;-63
2021/12/09 02:11:53;;;;;;;1.52;1.00;;;;;;;;;;5014177;28;20037;-63
2021/12/09 02:14:19;;;;;;;1.92;0.90;;;;;;;;;;5013724;28;20033;-64
2021/12/09 02:16:45;;;;;;;1.88;0.75;;;;;;;;;;5014032;28;20109;-63
2021/12/09 02:19:13;;;;;;;1.48;0.63;;;;;;;;;;5014519;28;20058;-64
2021/12/09 02:21:40;;;;;;;1.83;0.90;;;;;;;;;;5014190;28;20029;-63
2021/12/09 02:24:07;;;;;;;1.42;0.70;;;;;;;;;;5014578;28;20565;-63
2021/12/09 02:26:38;;;;;;;2.28;0.68;;;;;;;;;;5014681;28;20441;-63
2021/12/09 02:29:05;;;;;;;1.40;0.77;;;;;;;;;;5014518;28;20026;-64
2021/12/09 02:31:32;;;;;;;1.27;0.80;;;;;;;;;;5014277;28;20445;-63
2021/12/09 02:33:58;;;;;;;3.53;0.60;;;;;;;;;;5013632;28;20072;-63
2021/12/09 02:36:24;;;;;;;1.55;0.63;;;;;;;;;;5014559;28;20362;-63
2021/12/09 02:38:51;;;;;;;2.13;0.70;;;;;;;;;;5013618;28;20036;-62
2021/12/09 02:41:19;;;;;;;0.82;0.60;;;;;;;;;;5014535;28;20037;-62
2021/12/09 02:43:55;;;;;;;1.10;0.90;;;;;;;;;;5013412;28;20423;-62
2021/12/09 02:46:23;;;;;;;2.00;1.20;;;;;;;;;;5014242;28;20030;-63
2021/12/09 02:48:49;;;;;;;0.90;0.68;;;;;;;;;;5013078;28;20029;-63
2021/12/09 02:51:15;;;;;;;2.63;0.85;;;;;;;;;;5014573;28;20029;-63
2021/12/09 02:53:41;;;;;;;2.63;0.70;;;;;;;;;;5012941;28;20068;-63
2021/12/09 02:56:07;;;;;;;1.60;0.73;;;;;;;;;;5013829;28;20053;-63
2021/12/09 02:58:33;;;;;;;1.15;0.60;;;;;;;;;;5013771;28;20404;-63
2021/12/09 03:01:02;;;;;;;1.90;0.75;;;;;;;;;;5012846;28;20032;-63
2021/12/09 03:03:28;;;;;;;0.47;0.47;;;;;;;;;;5013846;28;20123;-63
2021/12/09 03:05:59;;;;;;;1.08;0.50;;;;;;;;;;5013022;28;20100;-63
2021/12/09 03:08:37;;;;;;;2.58;0.90;;;;;;;;;;5013570;28;20026;-63
2021/12/09 03:11:04;;;;;;;1.30;0.60;;;;;;;;;;5013944;28;20022;-63
2021/12/09 03:13:30;;;;;;;1.85;1.00;;;;;;;;;;5013782;28;20030;-63
2021/12/09 03:15:56;;;;;;;1.05;0.50;;;;;;;;;;5012853;28;20045;-63
2021/12/09 03:18:22;;;;;;;1.02;0.80;;;;;;;;;;5013733;28;20040;-63
2021/12/09 03:20:48;;;;;;;2.15;0.80;;;;;;;;;;5012810;28;20081;-63
2021/12/09 03:23:15;;;;;;;1.35;0.70;;;;;;;;;;5013564;28;20100;-63
2021/12/09 03:25:42;;;;;;;1.58;0.70;;;;;;;;;;5012552;28;20030;-63
2021/12/09 03:28:08;;;;;;;1.80;0.75;;;;;;;;;;5013241;28;20106;-63
2021/12/09 03:30:34;;;;;;;1.35;0.70;;;;;;;;;;5013226;28;20049;-63
2021/12/09 03:33:01;;;;;;;1.05;0.70;;;;;;;;;;5012397;28;20054;-63
2021/12/09 03:35:27;;;;;;;2.10;0.90;;;;;;;;;;5013390;28;20034;-63
2021/12/09 03:37:53;;;;;;;1.55;1.02;;;;;;;;;;5012507;28;20026;-62
2021/12/09 03:40:19;;;;;;;1.85;0.80;;;;;;;;;;5013268;28;20034;-62
2021/12/09 03:42:46;;;;;;;1.88;0.80;;;;;;;;;;5012409;28;20018;-62
2021/12/09 03:45:13;;;;;;;1.90;0.80;;;;;;;;;;5013016;28;20360;-62
2021/12/09 03:47:39;;;;;;;1.35;0.63;;;;;;;;;;5012615;28;20026;-62
2021/12/09 03:50:07;;;;;;;1.15;0.60;;;;;;;;;;5012988;28;20033;-62
2021/12/09 03:52:33;;;;;;;2.95;0.90;;;;;;;;;;5013094;28;20033;-63
2021/12/09 03:55:00;;;;;;;1.20;0.73;;;;;;;;;;5012279;28;20021;-64
2021/12/09 03:57:26;;;;;;;1.50;0.68;;;;;;;;;;5012786;28;20072;-63
2021/12/09 03:59:53;;;;;;;2.05;0.88;;;;;;;;;;5012125;28;20156;-63
2021/12/09 04:02:20;;;;;;;1.45;0.93;;;;;;;;;;5012726;28;20030;-63
2021/12/09 04:04:46;;;;;;;1.88;0.82;;;;;;;;;;5011824;28;20364;-63
2021/12/09 04:07:12;;;;;;;0.75;0.50;;;;;;;;;;5012821;28;20034;-63
2021/12/09 04:09:38;;;;;;;1.45;0.73;;;;;;;;;;5012271;28;20057;-63
2021/12/09 04:12:04;;;;;;;1.70;0.80;;;;;;;;;;5012404;28;20104;-63
2021/12/09 04:14:31;;;;;;;1.83;0.70;;;;;;;;;;5012708;28;20049;-64
2021/12/09 04:16:57;;;;;;;3.15;1.00;;;;;;;;;;5011683;28;20034;-62
2021/12/09 04:19:23;;;;;;;1.25;0.70;;;;;;;;;;5012768;28;20033;-63
2021/12/09 04:21:50;;;;;;;1.63;0.65;;;;;;;;;;5011887;28;20034;-63
2021/12/09 04:24:16;;;;;;;2.80;0.90;;;;;;;;;;5012664;28;20370;-63
2021/12/09 04:26:45;;;;;;;1.35;0.75;;;;;;;;;;5011293;28;20034;-63
2021/12/09 04:29:12;;;;;;;1.33;0.80;;;;;;;;;;5011691;28;20107;-63
2021/12/09 04:31:38;;;;;;;2.67;0.70;;;;;;;;;;5012442;28;20463;-63
2021/12/09 04:34:04;;;;;;;1.73;0.70;;;;;;;;;;5011697;28;20025;-63
2021/12/09 04:36:30;;;;;;;1.25;0.80;;;;;;;;;;5011953;28;20026;-63
2021/12/09 04:38:56;;;;;;;2.20;0.85;;;;;;;;;;5011305;28;20463;-63
2021/12/09 04:41:22;;;;;;;2.78;1.10;;;;;;;;;;5012325;28;20033;-63
2021/12/09 04:43:48;;;;;;;1.10;0.90;;;;;;;;;;5011565;28;20030;-63
2021/12/09 04:46:15;;;;;;;1.15;0.63;;;;;;;;;;5012509;28;20366;-63
2021/12/09 04:48:42;;;;;;;1.83;1.17;;;;;;;;;;5011688;28;20026;-63
2021/12/09 04:51:08;;;;;;;1.55;0.70;;;;;;;;;;5012102;28;20037;-63
2021/12/09 04:53:34;;;;;;;1.48;0.63;;;;;;;;;;5012269;28;20025;-63
2021/12/09 04:56:00;;;;;;;2.25;0.80;;;;;;;;;;5011070;28;20073;-63
2021/12/09 04:58:27;;;;;;;3.10;0.93;;;;;;;;;;5011846;28;20037;-63
2021/12/09 05:00:53;;;;;;;1.95;0.77;;;;;;;;;;5011190;28;20026;-63
2021/12/09 05:03:19;;;;;;;1.83;0.95;;;;;;;;;;5011747;28;20065;-63
2021/12/09 05:05:50;;;;;;;1.73;0.80;;;;;;;;;;4994694;28;20062;-63
2021/12/09 05:08:17;;;;;;;1.90;0.80;;;;;;;;;;4992672;28;20555;-63
2021/12/09 05:11:00;;;;;;;1.92;0.73;;;;;;;;;;4992079;28;20069;-63
2021/12/09 05:13:27;;;;;;;1.52;0.77;;;;;;;;;;4992962;28;20026;-63
2021/12/09 05:15:54;;;;;;;1.27;0.90;;;;;;;;;;4992236;28;20026;-63
2021/12/09 05:18:20;;;;;;;2.45;1.02;;;;;;;;;;4992765;28;20034;-63
2021/12/09 05:20:46;;;;;;;1.33;0.70;;;;;;;;;;4991836;28;20101;-62
2021/12/09 05:23:13;;;;;;;2.63;0.88;;;;;;;;;;4992771;28;20411;-63
2021/12/09 05:25:39;;;;;;;2.20;1.10;;;;;;;;;;4992576;28;20065;-63
2021/12/09 05:28:07;;;;;;;2.63;1.05;;;;;;;;;;5004065;28;20185;-63
2021/12/09 05:32:07;;;;;;;2.20;0.85;;;;;;;;;;5011913;28;20084;-63
2021/12/09 05:33:25;;;;;;;;;;;;;;;;;;5012360;28;20035;-63
2021/12/09 05:35:52;;;;;;;3.42;1.15;;;;;;;;;;5011135;28;19905;-63
2021/12/09 05:38:18;;;;;;;2.33;0.88;;;;;;;;;;5011973;28;20156;-63
2021/12/09 05:40:44;;;;;;;1.25;0.77;;;;;;;;;;5011455;28;20029;-63
2021/12/09 05:43:10;;;;;;;1.52;0.93;;;;;;;;;;5012165;28;20018;-63
2021/12/09 05:45:36;;;;;;;1.88;0.80;;;;;;;;;;5011660;28;20483;-63
2021/12/09 05:48:04;;;;;;;2.15;1.02;;;;;;;;;;5011200;28;20382;-63
2021/12/09 05:50:30;;;;;;;2.33;0.85;;;;;;;;;;5015133;28;20014;-63
2021/12/09 05:52:56;;;;;;;1.98;0.70;;;;;;;;;;5014877;28;20032;-63
2021/12/09 05:55:22;;;;;;;2.30;0.70;;;;;;;;;;5015448;28;20030;-64
2021/12/09 05:57:48;;;;;;;1.48;0.60;;;;;;;;;;5014565;28;20430;-64
2021/12/09 06:00:14;;;;;;;7.72;0.68;;;;;;;;;;5015224;28;20029;-64
2021/12/09 06:02:40;;;;;;;1.88;1.00;;;;;;;;;;5015279;28;20093;-64
2021/12/09 06:05:06;;;;;;;2.65;0.90;;;;;;;;;;5015206;28;20410;-64
2021/12/09 06:07:32;;;;;;;2.80;1.00;;;;;;;;;;5015648;28;20030;-66
2021/12/09 06:10:00;;;;;;;4.03;0.90;;;;;;;;;;5015081;28;20030;-64
2021/12/09 06:12:27;;;;;;;2.22;0.57;;;;;;;;;;5014904;28;20022;-64
2021/12/09 06:14:53;;;;;;;1.88;0.98;;;;;;;;;;5001875;28;20394;-64
2021/12/09 06:17:19;;;;;;;2.13;0.85;;;;;;;;;;4995624;28;20049;-64
2021/12/09 06:19:45;;;;;;;1.67;0.70;;;;;;;;;;4994787;28;20029;-63
2021/12/09 06:22:11;;;;;;;4.10;0.88;;;;;;;;;;4995029;28;20427;-66
2021/12/09 06:24:37;;;;;;;3.90;1.17;;;;;;;;;;4995185;28;20037;-64
2021/12/09 06:27:04;;;;;;;2.53;1.10;;;;;;;;;;4997658;28;20033;-64
2021/12/09 06:29:32;;;;;;;3.13;1.15;;;;;;;;;;5014244;28;20026;-63
2021/12/09 06:31:58;;;;;;;1.77;0.68;;;;;;;;;;5014212;28;20459;-63
2021/12/09 06:34:24;;;;;;;9.68;1.48;;;;;;;;;;5015052;28;20119;-62
2021/12/09 06:36:50;;;;;;;8.82;1.45;;;;;;;;;;5013924;28;20077;-66
2021/12/09 06:39:17;;;;;;;5.03;1.40;;;;;;;;;;5015069;28;20101;-64
2021/12/09 06:41:43;;;;;;;5.97;1.15;;;;;;;;;;5013947;28;20030;-62
2021/12/09 06:44:09;;;;;;;10.20;1.00;;;;;;;;;;5014187;28;20034;-61
2021/12/09 06:46:36;;;;;;;3.70;0.80;;;;;;;;;;5013497;28;20105;-61
2021/12/09 06:49:02;;;;;;;9.35;1.30;;;;;;;;;;5013124;28;20026;-62
2021/12/09 06:51:28;;;;;;;5.82;1.30;;;;;;;;;;5013541;28;20044;-62
2021/12/09 06:53:54;;;;;;;6.18;1.02;;;;;;;;;;5013026;28;20511;-60
2021/12/09 06:56:20;;;;;;;5.10;1.73;;;;;;;;;;5013225;28;20462;-60
2021/12/09 06:58:47;;;;;;;5.28;1.65;;;;;;;;;;5013132;28;20049;-60
2021/12/09 07:01:13;;;;;;;5.82;1.92;;;;;;;;;;5013586;28;20026;-60
2021/12/09 07:03:39;;;;;;;6.35;1.65;;;;;;;;;;5008610;28;20081;-60
2021/12/09 07:06:06;;;;;;;3.97;1.40;;;;;;;;;;5004845;28;20221;-60
2021/12/09 07:08:42;;;;;;;5.43;1.17;;;;;;;;;;5013642;28;20022;-60
2021/12/09 07:11:08;;;;;;;4.40;1.55;;;;;;;;;;5013094;28;20084;-60
2021/12/09 07:13:34;;;;;;;3.13;0.90;;;;;;;;;;5013513;28;20060;-60
2021/12/09 07:16:00;;;;;;;3.15;1.10;;;;;;;;;;5012131;28;20615;-60
2021/12/09 07:18:27;;;;;;;5.95;1.55;;;;;;;;;;5012929;28;20101;-60
2021/12/09 07:20:54;;;;;;;3.22;0.95;;;;;;;;;;5012061;28;20034;-60
2021/12/09 07:23:20;;;;;;;7.60;1.20;;;;;;;;;;5007908;28;20029;-60
2021/12/09 07:25:46;;;;;;;3.35;1.23;;;;;;;;;;5008022;28;20061;-60
2021/12/09 07:28:13;;;;;;;3.88;1.52;;;;;;;;;;5012163;28;20061;-60
2021/12/09 07:30:39;;;;;;;4.75;1.05;;;;;;;;;;5013282;28;20105;-60
2021/12/09 07:33:06;;;;;;;3.22;0.93;;;;;;;;;;5012887;28;20022;-60
2021/12/09 07:35:33;;;;;;;2.92;1.15;;;;;;;;;;5011294;28;20084;-61
2021/12/09 07:38:00;;;;;;;2.22;0.70;;;;;;;;;;5012343;28;20033;-60
2021/12/09 07:40:26;;;;;;;5.18;1.73;;;;;;;;;;5012950;28;20026;-60
2021/12/09 07:42:52;;;;;;;2.60;0.98;;;;;;;;;;5012149;28;20498;-60
2021/12/09 07:45:19;;;;;;;3.60;1.35;;;;;;;;;;5013186;28;20049;-60
2021/12/09 07:47:46;;;;;;;2.35;1.05;;;;;;;;;;5012147;28;20024;-60
2021/12/09 07:50:15;;;;;;;2.47;1.30;;;;;;;;;;5012499;28;20026;-60
2021/12/09 07:52:45;;;;;;;4.75;0.82;;;;;;;;;;5012495;28;20030;-60
2021/12/09 07:55:12;;;;;;;2.03;0.82;;;;;;;;;;5012442;28;20094;-60
2021/12/09 07:57:39;;;;;;;2.42;1.02;;;;;;;;;;5012289;28;20046;-60
2021/12/09 08:00:07;;;;;;;3.72;0.90;;;;;;;;;;5011356;28;20860;-60
2021/12/09 08:02:33;;;;;;;2.63;1.00;;;;;;;;;;5011986;28;20030;-60
2021/12/09 08:04:59;;;;;;;2.08;0.93;;;;;;;;;;5011521;28;20037;-60
2021/12/09 08:07:25;;;;;;;2.20;1.00;;;;;;;;;;5010723;28;20076;-60
2021/12/09 08:09:52;;;;;;;1.98;0.90;;;;;;;;;;5009666;28;20018;-60
2021/12/09 08:12:18;;;;;;;2.55;0.98;;;;;;;;;;5010058;28;20026;-60
2021/12/09 08:14:44;;;;;;;2.78;0.98;;;;;;;;;;5013100;28;20458;-60
2021/12/09 08:17:33;;;;;;;3.85;1.20;;;;;;;;;;5011463;28;20050;-60
2021/12/09 08:19:59;;;;;;;6.35;0.95;;;;;;;;;;5011498;28;20034;-60
2021/12/09 08:22:25;;;;;;;2.80;0.73;;;;;;;;;;5012169;28;20080;-60
2021/12/09 08:24:55;;;;;;;3.28;1.13;;;;;;;;;;5011126;28;20034;-60
2021/12/09 08:27:21;;;;;;;3.15;1.27;;;;;;;;;;5011446;28;20026;-60
2021/12/09 08:29:47;;;;;;;2.63;0.90;;;;;;;;;;5011974;28;20028;-60
2021/12/09 08:32:13;;;;;;;1.90;0.80;;;;;;;;;;5010536;28;20506;-60
2021/12/09 08:34:39;;;;;;;5.15;1.25;;;;;;;;;;5011584;28;20463;-60
2021/12/09 08:37:05;;;;;;;2.33;1.33;;;;;;;;;;5011300;28;20026;-60
2021/12/09 08:39:31;;;;;;;6.68;0.98;;;;;;;;;;5011616;28;20060;-60
2021/12/09 08:41:58;;;;;;;4.65;1.55;;;;;;;;;;5010705;28;20022;-60
2021/12/09 08:44:24;;;;;;;2.45;1.13;;;;;;;;;;5011039;28;20030;-60
2021/12/09 08:46:50;;;;;;;3.90;1.08;;;;;;;;;;5011159;28;20105;-60
2021/12/09 08:49:16;;;;;;;5.63;1.00;;;;;;;;;;5011353;28;20375;-60
2021/12/09 08:51:42;;;;;;;2.13;0.80;;;;;;;;;;5011469;28;20029;-60
2021/12/09 08:54:08;;;;;;;2.75;1.10;;;;;;;;;;5010754;28;20049;-60
2021/12/09 08:56:36;;;;;;;1.90;1.08;;;;;;;;;;5011005;28;20049;-60
2021/12/09 08:59:03;;;;;;;2.35;1.20;;;;;;;;;;5010390;28;20096;-60
2021/12/09 09:01:29;;;;;;;1.70;0.75;;;;;;;;;;5012121;28;20026;-60
2021/12/09 09:03:55;;;;;;;2.05;0.73;;;;;;;;;;5009805;28;20033;-60
2021/12/09 09:06:22;;;;;;;6.70;1.10;;;;;;;;;;5005181;28;20379;-60
2021/12/09 09:08:51;;;;;;;4.25;1.00;;;;;;;;;;5011657;28;20033;-60
2021/12/09 09:11:17;;;;;;;3.08;1.00;;;;;;;;;;5011614;28;20594;-60
2021/12/09 09:13:43;;;;;;;2.70;1.00;;;;;;;;;;5011387;28;20106;-60
2021/12/09 09:16:09;;;;;;;3.35;0.80;;;;;;;;;;5011234;28;20609;-60
2021/12/09 09:18:35;;;;;;;2.95;1.25;;;;;;;;;;5010135;28;20018;-60
2021/12/09 09:21:01;;;;;;;3.35;1.02;;;;;;;;;;5010363;28;20042;-60
2021/12/09 09:23:27;;;;;;;1.77;0.85;;;;;;;;;;5013275;28;20368;-60
2021/12/09 09:25:54;;;;;;;2.83;1.15;;;;;;;;;;5013769;28;20038;-60
2021/12/09 09:28:20;;;;;;;2.55;0.73;;;;;;;;;;5013785;28;20395;-60
2021/12/09 09:30:53;;;;;;;2.28;0.85;;;;;;;;;;5014359;28;20033;-60
2021/12/09 09:33:19;;;;;;;1.33;0.63;;;;;;;;;;5014440;28;20459;-60
2021/12/09 09:35:45;;;;;;;3.05;1.20;;;;;;;;;;5015230;28;20530;-60
2021/12/09 09:38:12;;;;;;;2.10;0.73;;;;;;;;;;5014570;28;20053;-60
2021/12/09 09:40:47;;;;;;;2.95;1.02;;;;;;;;;;5015233;28;20094;-60
2021/12/09 09:46:31;;;;;;;3.08;0.80;;;;;;;;;;4990793;28;20041;-60
2021/12/09 09:48:58;;;;;;;2.20;0.98;;;;;;;;;;5003158;28;20030;-60
2021/12/09 09:51:27;;;;;;;1.90;0.77;;;;;;;;;;5014789;28;20029;-60
2021/12/09 09:53:53;;;;;;;0.88;0.52;;;;;;;;;;5014552;28;20026;-60
2021/12/09 09:56:22;;;;;;;1.63;0.70;;;;;;;;;;5014993;28;20054;-60
2021/12/09 09:58:50;;;;;;;2.40;0.88;;;;;;;;;;5014793;28;20475;-60
2021/12/09 10:01:17;;;;;;;1.00;0.50;;;;;;;;;;5014572;28;20474;-60
2021/12/09 10:03:47;;;;;;;1.75;1.00;;;;;;;;;;5015038;28;20030;-60
2021/12/09 10:06:14;;;;;;;3.72;1.00;;;;;;;;;;5014169;28;20205;-60
2021/12/09 10:08:40;;;;;;;2.03;0.90;;;;;;;;;;5027991;28;20124;-60
2021/12/09 10:11:06;;;;;;;1.92;0.90;;;;;;;;;;5013694;28;20426;-60
2021/12/09 10:13:34;;;;;;;2.15;0.88;;;;;;;;;;5015109;28;20041;-60
2021/12/09 10:16:01;;;;;;;2.92;1.10;;;;;;;;;;5014238;28;20051;-60
2021/12/09 10:18:42;;;;;;;1.67;0.93;;;;;;;;;;5014687;28;20029;-60
2021/12/09 10:21:09;;;;;;;0.98;0.65;;;;;;;;;;5013761;28;20376;-60
2021/12/09 10:23:41;;;;;;;1.90;0.95;;;;;;;;;;5014453;28;20032;-60
2021/12/09 10:26:15;;;;;;;1.23;0.82;;;;;;;;;;5013549;28;20121;-60
2021/12/09 10:28:44;;;;;;;3.08;1.15;;;;;;;;;;5014759;28;20037;-60
2021/12/09 10:31:14;;;;;;;1.40;0.82;;;;;;;;;;5011012;28;20033;-60
2021/12/09 10:36:44;;;;;;;5.25;1.00;;;;;;;;;;5013520;28;20033;-61
2021/12/09 10:39:17;;;;;;;1.73;0.77;;;;;;;;;;5004082;28;20026;-62
2021/12/09 10:41:43;;;;;;;3.47;0.95;;;;;;;;;;4999955;28;20486;-61
2021/12/09 10:44:10;;;;;;;3.35;0.80;;;;;;;;;;5012084;28;20053;-61
2021/12/09 10:46:56;;;;;;;2.78;1.00;;;;;;;;;;5014206;28;20037;-62
2021/12/09 10:49:23;;;;;;;2.17;0.73;;;;;;;;;;5010633;28;20045;-62
2021/12/09 10:51:57;;;;;;;1.90;0.85;;;;;;;;;;5014095;28;20028;-64
2021/12/09 10:54:34;;;;;;;2.35;1.10;;;;;;;;;;5013084;28;20025;-62
2021/12/09 10:57:32;;;;;;;1.90;1.15;;;;;;;;;;5013013;28;20046;-61
2021/12/09 11:00:13;;;;;;;1.30;0.70;;;;;;;;;;4997246;28;20037;-61
2021/12/09 11:02:56;;;;;;;2.53;0.60;;;;;;;;;;5014027;28;20026;-61
2021/12/09 11:05:22;;;;;;;1.63;0.82;;;;;;;;;;5012370;28;20029;-64
2021/12/09 11:07:48;;;;;;;4.03;1.10;;;;;;;;;;5013399;28;20472;-64
2021/12/09 11:10:16;;;;;;;2.67;0.90;;;;;;;;;;5012428;28;20088;-60
2021/12/09 11:12:52;;;;;;;0.80;0.52;;;;;;;;;;5013523;28;20117;-63
2021/12/09 11:15:21;;;;;;;3.53;0.95;;;;;;;;;;5012891;28;20026;-63
2021/12/09 11:17:50;;;;;;;2.53;1.10;;;;;;;;;;5013564;28;20034;-64
2021/12/09 11:20:35;;;;;;;2.83;1.33;;;;;;;;;;5012880;28;20208;-60
2021/12/09 11:23:21;;;;;;;2.15;0.90;;;;;;;;;;5012325;28;20025;-59
2021/12/09 11:25:47;;;;;;;1.73;0.70;;;;;;;;;;5013573;28;20093;-59
2021/12/09 11:28:13;;;;;;;2.28;0.77;;;;;;;;;;5012123;28;20042;-58
2021/12/09 11:31:02;;;;;;;2.40;1.13;;;;;;;;;;5013348;28;20060;-58
2021/12/09 11:33:30;;;;;;;1.10;0.68;;;;;;;;;;5013466;28;20034;-62
2021/12/09 11:35:56;;;;;;;1.83;0.73;;;;;;;;;;5012653;28;20030;-60
2021/12/09 11:38:43;;;;;;;1.30;0.95;;;;;;;;;;5012362;28;20022;-61
2021/12/09 11:41:27;;;;;;;1.02;0.75;;;;;;;;;;5012187;28;20034;-62
2021/12/09 11:43:53;;;;;;;2.42;1.00;;;;;;;;;;4993932;28;20030;-64
2021/12/09 11:46:19;;;;;;;3.60;0.95;;;;;;;;;;5012038;28;20032;-61
2021/12/09 11:48:45;;;;;;;1.27;0.68;;;;;;;;;;5012585;28;20533;-60
2021/12/09 11:51:11;;;;;;;1.38;0.70;;;;;;;;;;5010833;28;20050;-62
2021/12/09 11:53:42;;;;;;;1.45;0.80;;;;;;;;;;5012427;28;20503;-63
2021/12/09 11:56:25;;;;;;;2.33;1.13;;;;;;;;;;5011955;28;20085;-69
2021/12/09 12:07:33;;;;;;;4.50;1.27;;;;;;;;;;5012533;28;20037;-66
2021/12/09 12:20:55;;;;;;;1.95;0.70;;;;;;;;;;5013228;28;20030;-67
2021/12/09 12:23:34;;;;;;;2.65;0.75;;;;;;;;;;5012485;28;20028;-64
2021/12/09 12:26:24;;;;;;;1.83;0.93;;;;;;;;;;5012184;28;20391;-64
2021/12/09 12:37:21;;;;;;;3.03;1.08;;;;;;;;;;5012166;28;20116;-69
2021/12/09 12:40:05;;;;;;;4.63;1.00;;;;;;;;;;4988699;28;20068;-69
2021/12/09 12:42:46;;;;;;;2.05;0.75;;;;;;;;;;5012172;28;20037;-67
2021/12/09 12:48:09;;;;;;;2.17;0.70;;;;;;;;;;5011777;28;20052;-66
2021/12/09 12:50:35;;;;;;;1.90;1.13;;;;;;;;;;5012313;28;20025;-68
2021/12/09 12:53:20;;;;;;;1.55;0.80;;;;;;;;;;5011585;28;20018;-63
2021/12/09 12:56:05;;;;;;;3.05;0.77;;;;;;;;;;5011418;28;20103;-70
2021/12/09 12:58:31;;;;;;;3.38;0.77;;;;;;;;;;5011287;28;20489;-68
2021/12/09 13:01:14;;;;;;;3.47;1.00;;;;;;;;;;5011908;28;20467;-67
2021/12/09 13:03:45;;;;;;;1.38;0.63;;;;;;;;;;5011949;28;20037;-71
2021/12/09 13:06:15;;;;;;;;;;;;;;;;;;5011386;28;20128;-68
2021/12/09 13:08:52;;;;;;;1.73;0.70;;;;;;;;;;5010819;28;19956;-66
2021/12/09 13:11:38;;;;;;;2.03;1.00;;;;;;;;;;5011591;28;20080;-68
2021/12/09 13:14:07;;;;;;;1.90;1.00;;;;;;;;;;5010489;28;20018;-69
2021/12/09 13:16:41;;;;;;;2.08;0.80;;;;;;;;;;5011653;28;20115;-68
2021/12/09 13:19:33;;;;;;;4.13;0.98;;;;;;;;;;5011350;28;20049;-68
2021/12/09 13:22:01;;;;;;;2.20;0.80;;;;;;;;;;5012182;28;20359;-69
2021/12/09 13:24:45;;;;;;;2.35;0.77;;;;;;;;;;5011956;28;20160;-65
2021/12/09 13:30:42;;;;;;;1.55;0.75;;;;;;;;;;4988916;28;20034;-64
2021/12/09 13:36:11;;;;;;;1.98;0.82;;;;;;;;;;4989892;28;20066;-67
2021/12/09 13:47:04;;;;;;;2.35;1.00;;;;;;;;;;4989509;28;20049;-67
2021/12/09 13:54:57;;;;;;;3.15;1.00;;;;;;;;;;4989458;28;20093;-66
2021/12/09 13:57:34;;;;;;;1.10;0.60;;;;;;;;;;4988569;28;20058;-66
2021/12/09 14:00:00;;;;;;;2.65;0.73;;;;;;;;;;4990872;28;20054;-64
2021/12/09 14:02:28;;;;;;;4.95;1.05;;;;;;;;;;5009819;28;20045;-67
2021/12/09 14:04:56;;;;;;;1.52;1.00;;;;;;;;;;5011367;28;20026;-70
2021/12/09 14:07:31;;;;;;;3.00;1.10;;;;;;;;;;5010223;28;20029;-68
2021/12/09 14:10:05;;;;;;;6.10;1.20;;;;;;;;;;5012512;28;20133;-67
2021/12/09 14:12:38;;;;;;;1.42;0.90;;;;;;;;;;5015199;28;20056;-67
2021/12/09 14:15:12;;;;;;;3.15;0.75;;;;;;;;;;5013937;28;20030;-63
2021/12/09 14:17:41;;;;;;;1.20;0.60;;;;;;;;;;5013174;28;20539;-69
2021/12/09 14:20:16;;;;;;;1.48;0.70;;;;;;;;;;5014058;28;20442;-68
2021/12/09 14:22:42;;;;;;;1.85;1.02;;;;;;;;;;5014888;28;20030;-69
2021/12/09 14:25:11;;;;;;;2.50;1.02;;;;;;;;;;5013573;28;20036;-68
2021/12/09 14:27:37;;;;;;;2.13;0.98;;;;;;;;;;5014232;28;20502;-68
2021/12/09 14:30:04;;;;;;;4.85;0.75;;;;;;;;;;5014315;28;20038;-65
2021/12/09 14:32:30;;;;;;;3.33;0.63;;;;;;;;;;5014456;28;20486;-70
2021/12/09 14:34:59;;;;;;;2.05;0.93;;;;;;;;;;5014469;28;20021;-69
2021/12/09 14:37:25;;;;;;;4.38;0.93;;;;;;;;;;5013561;28;20028;-68
2021/12/09 14:40:01;;;;;;;2.90;0.90;;;;;;;;;;5014261;28;20529;-68
2021/12/09 14:42:27;;;;;;;2.53;1.02;;;;;;;;;;5013957;28;20025;-68
2021/12/09 14:44:58;;;;;;;4.10;1.20;;;;;;;;;;5013916;28;20367;-66
2021/12/09 14:47:24;;;;;;;2.25;0.80;;;;;;;;;;5012772;28;20018;-70
2021/12/09 14:49:52;;;;;;;5.90;1.05;;;;;;;;;;5014086;28;20096;-68
2021/12/09 14:52:27;;;;;;;4.75;1.27;;;;;;;;;;5013501;28;20452;-64
2021/12/09 14:55:09;;;;;;;5.45;0.82;;;;;;;;;;5013951;28;20057;-64
2021/12/09 14:57:35;;;;;;;5.72;0.90;;;;;;;;;;5013484;28;20054;-75
2021/12/09 15:00:01;;;;;;;6.50;1.73;;;;;;;;;;5013976;28;20521;-72
2021/12/09 15:02:34;;;;;;;2.08;0.75;;;;;;;;;;5012880;28;20354;-69
2021/12/09 15:05:09;;;;;;;2.58;1.08;;;;;;;;;;5005533;28;20030;-69
2021/12/09 15:07:45;;;;;;;1.58;0.90;;;;;;;;;;5014199;28;20041;-69
2021/12/09 15:10:15;;;;;;;4.18;0.82;;;;;;;;;;5012414;28;20022;-69
2021/12/09 15:12:42;;;;;;;3.88;0.90;;;;;;;;;;5012285;28;20028;-69
2021/12/09 15:15:16;;;;;;;4.43;0.95;;;;;;;;;;5012153;28;20040;-64
2021/12/09 15:17:53;;;;;;;4.68;1.48;;;;;;;;;;5009166;28;20026;-69
2021/12/09 15:20:19;;;;;;;6.32;0.98;;;;;;;;;;5012541;28;20088;-69
2021/12/09 15:22:54;;;;;;;3.00;0.77;;;;;;;;;;5011836;28;20383;-69
2021/12/09 15:25:20;;;;;;;3.05;1.05;;;;;;;;;;5012701;28;20075;-69
2021/12/09 15:27:46;;;;;;;1.95;0.80;;;;;;;;;;5012847;28;20033;-69
2021/12/09 15:30:13;;;;;;;2.53;1.13;;;;;;;;;;5012157;28;20029;-68
2021/12/09 15:32:58;;;;;;;2.67;1.08;;;;;;;;;;5012098;28;20152;-69
2021/12/09 15:35:24;;;;;;;2.42;0.73;;;;;;;;;;5011848;28;20029;-68
2021/12/09 15:37:50;;;;;;;2.85;0.82;;;;;;;;;;5011795;28;20121;-66
2021/12/09 15:40:18;;;;;;;2.65;0.77;;;;;;;;;;5011983;28;20029;-68
2021/12/09 15:42:44;;;;;;;3.78;1.08;;;;;;;;;;5013050;28;20118;-68
2021/12/09 15:45:10;;;;;;;3.60;0.95;;;;;;;;;;5012067;28;20036;-68
2021/12/09 15:47:37;;;;;;;4.35;0.98;;;;;;;;;;5013026;28;20034;-68
2021/12/09 15:50:10;;;;;;;2.17;0.82;;;;;;;;;;5012785;28;20034;-69